Time;durP1;ratioP1;P1;durP2;ratioP2;P2;SDS_P1;SDS_P2;PMS_P1;PMS_P2;Temp;Humidity;BMP_temperature;BMP_pressure;BME280_temperature;BME280_humidity;BME280_pressure;Samples;Min_cycle;Max_cycle;Signal;HPM_P1;HPM_P2
2021/12/25 00:00:06;;;;;;;9.33;2.60;;;-0.10;99.90;;;;;;5018879;28;20044;-70
2021/12/25 00:02:34;;;;;;;7.47;2.20;;;-0.10;99.90;;;;;;5031416;28;20048;-73
2021/12/25 00:05:04;;;;;;;3.90;1.83;;;-0.10;99.90;;;;;;5023030;28;20417;-72
2021/12/25 00:07:30;;;;;;;6.60;2.10;;;-0.10;99.90;;;;;;5029433;28;20076;-73
2021/12/25 00:09:58;;;;;;;7.70;2.30;;;-0.10;99.90;;;;;;4991194;28;20096;-73
2021/12/25 00:12:24;;;;;;;8.23;2.13;;;-0.10;99.90;;;;;;5016367;28;20084;-70
2021/12/25 00:14:50;;;;;;;7.80;2.27;;;-0.10;99.90;;;;;;5038477;28;20071;-70
2021/12/25 00:17:16;;;;;;;8.70;2.50;;;-0.10;99.90;;;;;;5032896;28;20045;-70
2021/12/25 00:19:43;;;;;;;6.80;1.57;;;-0.10;99.90;;;;;;5019150;28;20033;-70
2021/12/25 00:22:09;;;;;;;5.80;1.97;;;-0.20;99.90;;;;;;5031771;28;20069;-70
2021/12/25 00:24:35;;;;;;;6.30;1.93;;;-0.20;99.90;;;;;;5004068;28;20049;-69
2021/12/25 00:27:09;;;;;;;6.73;2.20;;;-0.20;99.90;;;;;;5025490;28;20288;-70
2021/12/25 00:29:57;;;;;;;6.20;1.60;;;-0.20;99.90;;;;;;5005182;28;20108;-70
2021/12/25 00:34:50;;;;;;;9.73;2.00;;;-0.20;99.90;;;;;;5033874;28;20128;-70
2021/12/25 00:37:16;;;;;;;7.50;1.63;;;-0.20;99.90;;;;;;5035326;28;20510;-73
2021/12/25 00:39:45;;;;;;;5.77;1.70;;;-0.20;99.90;;;;;;5036225;28;20041;-73
2021/12/25 00:42:11;;;;;;;5.53;1.70;;;-0.30;99.90;;;;;;5019171;28;20060;-72
2021/12/25 00:44:38;;;;;;;5.10;1.67;;;-0.30;99.90;;;;;;5037192;28;20115;-72
2021/12/25 00:47:05;;;;;;;5.83;1.93;;;-0.40;99.90;;;;;;5039573;28;20138;-70
2021/12/25 00:49:31;;;;;;;4.90;1.60;;;-0.40;99.90;;;;;;5034318;28;20041;-69
2021/12/25 00:52:01;;;;;;;6.43;1.73;;;-0.40;99.90;;;;;;5027422;28;20131;-69
2021/12/25 00:54:27;;;;;;;;;;;-0.40;99.90;;;;;;5026844;28;20052;-68
2021/12/25 00:56:53;;;;;;;5.47;1.53;;;-0.50;99.90;;;;;;5034940;28;19920;-72
2021/12/25 00:59:19;;;;;;;5.47;1.87;;;-0.40;99.90;;;;;;5027590;28;20051;-72
2021/12/25 01:01:45;;;;;;;4.10;1.30;;;-0.50;99.90;;;;;;5001053;28;20041;-72
2021/12/25 01:04:11;;;;;;;4.30;1.23;;;-0.60;99.90;;;;;;5020895;28;20057;-72
2021/12/25 01:06:37;;;;;;;4.40;1.57;;;-0.60;99.90;;;;;;5036328;28;20748;-72
2021/12/25 01:09:04;;;;;;;9.20;1.77;;;-0.60;99.90;;;;;;5007427;28;20041;-72
2021/12/25 01:11:31;;;;;;;5.17;1.50;;;-0.60;99.90;;;;;;5023663;28;20064;-72
2021/12/25 01:14:14;;;;;;;5.57;1.30;;;-0.70;99.90;;;;;;5036915;28;20506;-72
2021/12/25 01:40:24;;;;;;;3.73;1.33;;;-1.00;99.90;;;;;;5011782;28;20045;-72
2021/12/25 01:48:21;;;;;;;8.50;1.70;;;-1.10;99.90;;;;;;5041597;28;20080;-72
2021/12/25 01:50:48;;;;;;;6.10;1.70;;;-1.10;99.90;;;;;;5027787;28;20045;-72
2021/12/25 01:53:14;;;;;;;4.73;1.40;;;-1.10;99.90;;;;;;5025637;28;20064;-72
2021/12/25 01:55:40;;;;;;;3.97;1.30;;;-1.10;99.90;;;;;;5028079;28;20624;-74
2021/12/25 01:58:09;;;;;;;6.30;1.73;;;-1.10;99.90;;;;;;5027551;28;20105;-73
2021/12/25 02:00:44;;;;;;;5.80;1.60;;;-1.10;99.90;;;;;;5011321;28;20033;-72
2021/12/25 02:03:13;;;;;;;5.37;1.10;;;-1.10;99.90;;;;;;5044078;28;20049;-72
2021/12/25 02:05:39;;;;;;;4.97;1.47;;;-1.20;99.90;;;;;;5025133;28;20033;-72
2021/12/25 02:08:05;;;;;;;6.13;1.40;;;-1.10;99.90;;;;;;5043434;28;20499;-72
2021/12/25 02:10:32;;;;;;;6.70;1.77;;;-1.20;99.90;;;;;;5026505;28;20041;-72
2021/12/25 02:12:58;;;;;;;6.43;1.50;;;-1.30;99.90;;;;;;5023428;28;20041;-72
2021/12/25 02:15:26;;;;;;;3.97;1.40;;;-1.30;99.90;;;;;;5021992;28;20467;-72
2021/12/25 02:20:35;;;;;;;3.93;1.50;;;-1.30;99.90;;;;;;5040458;28;20077;-72
2021/12/25 02:23:10;;;;;;;4.37;1.67;;;-1.30;99.90;;;;;;5023370;28;20074;-72
2021/12/25 02:25:37;;;;;;;6.43;1.37;;;-1.40;99.90;;;;;;5044286;28;20037;-71
2021/12/25 02:28:04;;;;;;;4.60;1.23;;;-1.40;99.90;;;;;;5011193;28;20041;-72
2021/12/25 02:30:31;;;;;;;5.70;1.40;;;-1.40;99.90;;;;;;5012095;28;20041;-72
2021/12/25 02:32:58;;;;;;;3.47;1.40;;;-1.40;99.90;;;;;;5042342;28;20147;-72
2021/12/25 02:35:25;;;;;;;5.40;1.87;;;-1.50;99.90;;;;;;5028555;28;20123;-72
2021/12/25 02:37:52;;;;;;;5.33;1.67;;;-1.50;99.90;;;;;;5011583;28;20076;-71
2021/12/25 02:40:18;;;;;;;5.17;1.70;;;-1.50;99.90;;;;;;5007424;28;20081;-70
2021/12/25 02:42:44;;;;;;;4.90;1.20;;;-1.50;99.90;;;;;;5044689;28;20461;-70
2021/12/25 02:45:16;;;;;;;3.03;1.30;;;-1.50;99.90;;;;;;5037801;28;20539;-70
2021/12/25 02:47:47;;;;;;;6.57;1.73;;;-1.50;99.90;;;;;;5044107;28;20056;-70
2021/12/25 02:50:28;;;;;;;11.50;1.80;;;-1.60;99.90;;;;;;5026750;28;20396;-69
2021/12/25 02:52:56;;;;;;;5.70;1.50;;;-1.60;99.90;;;;;;5043607;28;20045;-70
2021/12/25 02:55:22;;;;;;;4.23;1.30;;;-1.60;99.90;;;;;;5040917;28;20037;-70
2021/12/25 02:57:51;;;;;;;5.70;1.40;;;-1.70;99.90;;;;;;5025937;28;20037;-70
2021/12/25 03:00:19;;;;;;;5.20;1.40;;;-1.70;99.90;;;;;;5022552;28;20048;-71
2021/12/25 03:02:45;;;;;;;3.37;1.30;;;-1.70;99.90;;;;;;5031200;28;20041;-72
2021/12/25 03:05:12;;;;;;;4.73;1.30;;;-1.80;99.90;;;;;;5047230;28;20155;-70
2021/12/25 03:07:37;;;;;;;4.33;1.43;;;-1.80;99.90;;;;;;5030728;28;20459;-70
2021/12/25 03:10:05;;;;;;;3.80;1.07;;;-1.80;99.90;;;;;;5020342;28;20073;-70
2021/12/25 03:12:37;;;;;;;3.47;1.50;;;-1.80;99.90;;;;;;5028780;28;20511;-70
2021/12/25 03:15:12;;;;;;;3.30;1.30;;;-1.90;99.90;;;;;;5045612;28;20045;-70
2021/12/25 03:17:39;;;;;;;4.93;1.60;;;-1.90;99.90;;;;;;5046351;28;20040;-70
2021/12/25 03:20:07;;;;;;;4.10;1.33;;;-1.90;99.90;;;;;;5046577;28;20045;-70
2021/12/25 03:22:34;;;;;;;4.47;1.40;;;-2.00;99.90;;;;;;5047324;28;20048;-70
2021/12/25 03:25:00;;;;;;;5.47;1.90;;;-2.00;99.90;;;;;;5027289;28;20116;-70
2021/12/25 03:27:26;;;;;;;5.07;1.10;;;-2.00;99.90;;;;;;5030747;28;20172;-70
2021/12/25 03:29:52;;;;;;;3.13;1.13;;;-2.00;99.90;;;;;;5043701;28;20098;-70
2021/12/25 03:32:18;;;;;;;3.97;1.27;;;-2.00;99.90;;;;;;5031417;28;20049;-70
2021/12/25 03:34:44;;;;;;;2.50;0.90;;;-2.10;99.90;;;;;;5030177;28;20045;-69
2021/12/25 03:37:09;;;;;;;4.60;1.40;;;-2.10;99.90;;;;;;5013227;28;20171;-70
2021/12/25 03:39:35;;;;;;;4.17;1.20;;;-2.10;99.90;;;;;;5043380;28;20041;-70
2021/12/25 03:42:01;;;;;;;4.13;1.50;;;-2.20;99.90;;;;;;5013584;28;20123;-70
2021/12/25 03:44:28;;;;;;;3.87;1.20;;;-2.20;99.90;;;;;;5012284;28;20045;-70
2021/12/25 03:47:00;;;;;;;2.33;1.10;;;-2.20;99.90;;;;;;5046683;28;20061;-70
2021/12/25 03:49:33;;;;;;;3.23;1.30;;;-2.20;99.90;;;;;;5030484;28;20076;-70
2021/12/25 03:57:48;;;;;;;3.80;1.00;;;-2.30;99.90;;;;;;5046831;28;20057;-69
2021/12/25 04:00:15;;;;;;;3.30;0.97;;;-2.30;99.90;;;;;;5015810;28;20033;-70
2021/12/25 04:02:54;;;;;;;3.77;1.00;;;-2.30;99.90;;;;;;5047207;28;20049;-70
2021/12/25 04:05:25;;;;;;;3.57;1.20;;;-2.40;99.90;;;;;;5046711;28;20049;-70
2021/12/25 04:10:17;;;;;;;4.30;1.20;;;-2.40;99.90;;;;;;5030333;28;20049;-70
2021/12/25 04:12:43;;;;;;;4.47;1.43;;;-2.50;99.90;;;;;;5028313;28;20041;-70
2021/12/25 04:15:09;;;;;;;3.10;1.00;;;-2.50;99.90;;;;;;5044736;28;20129;-70
2021/12/25 04:17:34;;;;;;;3.20;1.20;;;-2.50;99.90;;;;;;5046469;28;20045;-70
2021/12/25 04:20:03;;;;;;;2.90;1.10;;;-2.60;99.90;;;;;;5029625;28;20044;-71
2021/12/25 04:22:41;;;;;;;1.92;1.15;;;-2.60;99.90;;;;;;5030795;28;20045;-70
2021/12/25 04:25:07;;;;;;;3.43;1.10;;;-2.60;99.90;;;;;;5027903;28;20504;-70
2021/12/25 04:27:33;;;;;;;3.20;1.27;;;-2.60;99.90;;;;;;5046808;28;20045;-70
2021/12/25 04:30:15;;;;;;;2.20;1.00;;;-2.60;99.90;;;;;;5046614;28;20504;-70
2021/12/25 05:05:30;;;;;;;2.70;1.33;;;-2.90;99.90;;;;;;4979017;28;20603;-70
2021/12/25 05:07:56;;;;;;;3.60;1.17;;;-2.90;99.90;;;;;;5015423;28;20049;-70
2021/12/25 05:10:22;;;;;;;2.57;0.93;;;-2.90;99.90;;;;;;5036046;28;20053;-70
2021/12/25 05:12:48;;;;;;;3.07;1.20;;;-2.90;99.90;;;;;;5030878;28;20041;-70
2021/12/25 05:15:14;;;;;;;4.13;1.13;;;-2.90;99.90;;;;;;5011240;28;20804;-69
2021/12/25 05:17:39;;;;;;;4.10;1.50;;;-2.80;99.90;;;;;;5029009;28;20037;-70
2021/12/25 05:20:06;;;;;;;3.63;1.43;;;-3.00;99.90;;;;;;5026246;28;20049;-70
2021/12/25 05:22:31;;;;;;;3.23;1.33;;;-3.00;99.90;;;;;;5010940;28;20119;-70
2021/12/25 05:24:57;;;;;;;2.20;1.00;;;-3.00;99.90;;;;;;5027990;28;20053;-70
2021/12/25 05:27:23;;;;;;;3.77;1.40;;;-3.00;99.90;;;;;;5032921;28;20037;-70
2021/12/25 05:29:49;;;;;;;4.20;1.30;;;-3.00;99.90;;;;;;5011443;28;20059;-70
2021/12/25 05:32:17;;;;;;;2.27;1.07;;;-3.00;99.90;;;;;;5043238;28;20119;-70
2021/12/25 05:34:43;;;;;;;2.97;1.50;;;-3.00;99.90;;;;;;5044417;28;20041;-70
2021/12/25 05:37:09;;;;;;;5.03;1.30;;;-3.10;99.90;;;;;;5027222;28;20091;-71
2021/12/25 05:39:36;;;;;;;2.63;1.30;;;-3.10;99.90;;;;;;5031539;28;20754;-71
2021/12/25 05:42:02;;;;;;;4.03;1.63;;;-3.10;99.90;;;;;;5022796;28;20057;-71
2021/12/25 05:44:31;;;;;;;3.07;1.40;;;-3.00;99.90;;;;;;5007677;28;20523;-71
2021/12/25 05:46:57;;;;;;;3.60;1.60;;;-3.00;99.90;;;;;;5007081;28;20304;-71
2021/12/25 05:49:24;;;;;;;4.10;1.20;;;-3.00;99.90;;;;;;5035487;28;20103;-71
2021/12/25 05:51:50;;;;;;;3.80;1.33;;;-3.10;99.90;;;;;;5043753;28;20041;-71
2021/12/25 05:54:16;;;;;;;3.17;0.83;;;-3.10;99.90;;;;;;5028140;28;20049;-71
2021/12/25 05:56:42;;;;;;;3.57;1.20;;;-3.10;99.90;;;;;;5046578;28;20079;-72
2021/12/25 05:59:08;;;;;;;4.20;1.50;;;-3.10;99.90;;;;;;5046461;28;20047;-71
2021/12/25 06:01:33;;;;;;;3.73;1.53;;;-3.00;99.90;;;;;;5028550;28;20057;-71
2021/12/25 06:04:00;;;;;;;2.60;1.03;;;-3.10;99.90;;;;;;5013131;28;20056;-71
2021/12/25 06:06:25;;;;;;;2.87;1.30;;;-3.00;99.90;;;;;;5013793;28;20110;-71
2021/12/25 06:08:52;;;;;;;4.47;1.60;;;-3.10;99.90;;;;;;5047569;28;20041;-70
2021/12/25 06:11:18;;;;;;;2.87;1.03;;;-3.10;99.90;;;;;;5014158;28;20045;-70
2021/12/25 06:13:55;;;;;;;2.30;1.10;;;-3.10;99.90;;;;;;5047553;28;20632;-71
2021/12/25 06:16:22;;;;;;;3.17;0.90;;;-3.00;99.90;;;;;;5027743;28;20739;-71
2021/12/25 06:18:47;;;;;;;3.77;0.93;;;-3.00;99.90;;;;;;5010563;28;20041;-71
2021/12/25 06:21:13;;;;;;;1.93;0.97;;;-3.10;99.90;;;;;;5009703;28;20421;-71
2021/12/25 06:23:39;;;;;;;2.83;1.00;;;-3.10;99.90;;;;;;5006426;28;20804;-71
2021/12/25 06:26:05;;;;;;;2.93;1.03;;;-3.10;99.90;;;;;;5005856;28;20481;-71
2021/12/25 06:28:31;;;;;;;2.50;0.80;;;-3.10;99.90;;;;;;5023422;28;20091;-70
2021/12/25 06:30:57;;;;;;;3.33;1.20;;;-3.10;99.90;;;;;;5022931;28;20045;-71
2021/12/25 06:33:22;;;;;;;2.63;1.00;;;-3.10;99.90;;;;;;5023392;28;20045;-71
2021/12/25 06:35:50;;;;;;;2.57;1.20;;;-3.10;99.90;;;;;;5006113;28;20227;-71
2021/12/25 06:38:16;;;;;;;2.33;0.80;;;-3.10;99.90;;;;;;5022481;28;20059;-71
2021/12/25 06:40:42;;;;;;;2.97;1.10;;;-3.10;99.90;;;;;;5022593;28;20132;-71
2021/12/25 06:43:08;;;;;;;3.30;0.87;;;-3.20;99.90;;;;;;5005855;28;20129;-71
2021/12/25 06:45:34;;;;;;;2.53;0.90;;;-3.20;99.90;;;;;;5022372;28;20059;-71
2021/12/25 06:47:59;;;;;;;3.70;0.90;;;-3.30;99.90;;;;;;5028857;28;20132;-71
2021/12/25 06:50:25;;;;;;;2.90;0.80;;;-3.30;99.90;;;;;;5026063;28;20103;-71
2021/12/25 06:52:51;;;;;;;2.13;0.87;;;-3.30;99.90;;;;;;5010610;28;20094;-71
2021/12/25 06:55:17;;;;;;;2.80;1.07;;;-3.30;99.90;;;;;;5010735;28;20408;-71
2021/12/25 06:57:48;;;;;;;2.53;0.97;;;-3.30;99.90;;;;;;5024620;28;20046;-71
2021/12/25 07:00:15;;;;;;;4.00;1.00;;;-3.30;99.90;;;;;;5041096;28;20120;-71
2021/12/25 07:02:41;;;;;;;2.70;0.90;;;-3.30;99.90;;;;;;5012261;28;20522;-71
2021/12/25 07:05:07;;;;;;;2.13;0.83;;;-3.30;99.90;;;;;;5044570;28;20049;-71
2021/12/25 07:07:33;;;;;;;2.73;1.00;;;-3.30;99.90;;;;;;5045673;28;20045;-71
2021/12/25 07:09:59;;;;;;;3.73;1.10;;;-3.40;99.90;;;;;;5044840;28;20084;-71
2021/12/25 07:12:25;;;;;;;3.20;0.80;;;-3.40;99.90;;;;;;5012765;28;20136;-71
2021/12/25 07:14:51;;;;;;;3.83;1.10;;;-3.50;99.90;;;;;;5029038;28;20495;-71
2021/12/25 07:17:17;;;;;;;2.13;1.10;;;-3.50;99.90;;;;;;5026723;28;20052;-71
2021/12/25 07:19:42;;;;;;;3.63;1.03;;;-3.50;99.90;;;;;;5045398;28;20377;-71
2021/12/25 07:22:08;;;;;;;3.00;1.13;;;-3.50;99.90;;;;;;5027944;28;20075;-72
2021/12/25 07:24:34;;;;;;;1.50;0.80;;;-3.60;99.90;;;;;;5024551;28;20060;-71
2021/12/25 07:27:05;;;;;;;2.47;1.10;;;-3.60;99.90;;;;;;5024506;28;20508;-71
2021/12/25 07:29:31;;;;;;;2.40;0.87;;;-3.60;99.90;;;;;;5007784;28;20267;-71
2021/12/25 07:31:57;;;;;;;4.27;1.03;;;-3.60;99.90;;;;;;5004998;28;20037;-71
2021/12/25 07:34:23;;;;;;;4.23;1.20;;;-3.50;99.90;;;;;;5018961;28;20048;-70
2021/12/25 07:36:49;;;;;;;4.47;1.03;;;-3.60;99.90;;;;;;5025665;28;20037;-70
2021/12/25 07:39:15;;;;;;;3.37;0.90;;;-3.50;99.90;;;;;;5009244;28;20059;-70
2021/12/25 07:41:41;;;;;;;4.00;1.50;;;-3.50;99.90;;;;;;5028556;28;20036;-70
2021/12/25 07:44:07;;;;;;;3.37;1.20;;;-3.60;99.90;;;;;;5010644;28;20045;-72
2021/12/25 07:46:33;;;;;;;2.97;0.90;;;-3.60;99.90;;;;;;5037159;28;20056;-70
2021/12/25 07:48:59;;;;;;;2.20;0.87;;;-3.60;99.90;;;;;;5047578;28;20420;-71
2021/12/25 07:51:25;;;;;;;4.73;1.17;;;-3.50;99.90;;;;;;5048822;28;20424;-70
2021/12/25 07:53:51;;;;;;;3.17;1.03;;;-3.50;99.90;;;;;;5043538;28;20084;-70
2021/12/25 07:56:17;;;;;;;1.73;0.67;;;-3.50;99.90;;;;;;5047846;28;20052;-70
2021/12/25 07:58:43;;;;;;;3.80;0.90;;;-3.50;99.90;;;;;;5031162;28;20377;-70
2021/12/25 08:01:09;;;;;;;2.77;0.70;;;-3.60;99.90;;;;;;5046173;28;20407;-70
2021/12/25 08:03:35;;;;;;;2.57;0.90;;;-3.60;99.90;;;;;;5017930;28;20049;-70
2021/12/25 08:06:03;;;;;;;3.43;0.93;;;-3.60;99.90;;;;;;5015563;28;20107;-70
2021/12/25 08:08:29;;;;;;;3.77;0.90;;;-3.60;99.90;;;;;;5047890;28;20499;-69
2021/12/25 08:10:56;;;;;;;3.37;0.83;;;-3.60;99.90;;;;;;5044970;28;20055;-70
2021/12/25 08:13:23;;;;;;;3.20;0.90;;;-3.60;99.90;;;;;;5028523;28;20091;-70
2021/12/25 08:15:48;;;;;;;5.73;1.20;;;-3.60;99.90;;;;;;5027616;28;20931;-70
2021/12/25 08:18:14;;;;;;;3.40;0.73;;;-3.60;99.90;;;;;;5029368;28;20079;-70
2021/12/25 08:20:40;;;;;;;2.47;1.00;;;-3.60;99.90;;;;;;5029648;28;20184;-70
2021/12/25 08:23:07;;;;;;;3.20;1.17;;;-3.60;99.90;;;;;;5044614;28;20048;-70
2021/12/25 08:25:34;;;;;;;4.63;0.90;;;-3.60;99.90;;;;;;5022393;28;20048;-70
2021/12/25 08:28:00;;;;;;;2.97;1.17;;;-3.60;99.90;;;;;;5026285;28;20068;-70
2021/12/25 08:30:27;;;;;;;3.50;0.90;;;-3.60;99.90;;;;;;5026891;28;20110;-70
2021/12/25 08:32:56;;;;;;;5.87;2.40;;;-3.60;99.90;;;;;;5042876;28;20041;-70
2021/12/25 08:35:23;;;;;;;1.87;0.80;;;-3.60;99.90;;;;;;5045176;28;20040;-70
2021/12/25 08:37:49;;;;;;;4.63;0.90;;;-3.50;99.90;;;;;;5029628;28;20048;-70
2021/12/25 08:40:15;;;;;;;2.67;0.90;;;-3.50;99.90;;;;;;5042903;28;20107;-69
2021/12/25 08:42:51;;;;;;;3.73;1.10;;;-3.40;99.90;;;;;;5027991;28;20503;-70
2021/12/25 08:48:06;;;;;;;3.03;0.90;;;-3.40;99.90;;;;;;5028164;28;20116;-71
2021/12/25 08:50:32;;;;;;;5.00;1.40;;;-3.40;99.90;;;;;;5042314;28;20119;-70
2021/12/25 08:53:03;;;;;;;3.57;0.90;;;-3.40;99.90;;;;;;5026031;28;20044;-69
2021/12/25 08:55:29;;;;;;;3.47;0.93;;;-3.40;99.90;;;;;;5008972;28;20048;-69
2021/12/25 08:57:55;;;;;;;3.37;0.80;;;-3.40;99.90;;;;;;5025678;28;20033;-69
2021/12/25 09:00:21;;;;;;;3.77;0.87;;;-3.30;99.90;;;;;;5006595;28;20349;-70
2021/12/25 09:02:48;;;;;;;4.47;1.37;;;-3.30;99.90;;;;;;5009093;28;20551;-69
2021/12/25 09:05:14;;;;;;;3.60;1.00;;;-3.20;99.90;;;;;;4991317;28;20492;-71
2021/12/25 09:07:40;;;;;;;6.03;1.40;;;-3.20;99.90;;;;;;5024514;28;20048;-71
2021/12/25 09:10:06;;;;;;;4.50;1.37;;;-3.20;99.90;;;;;;5039253;28;20041;-72
2021/12/25 09:12:33;;;;;;;3.97;1.27;;;-3.20;99.90;;;;;;5006830;28;20144;-71
2021/12/25 09:14:59;;;;;;;3.80;1.10;;;-3.20;99.90;;;;;;5041753;28;20041;-71
2021/12/25 09:17:25;;;;;;;3.10;0.87;;;-3.10;99.90;;;;;;5023291;28;20945;-71
2021/12/25 09:19:51;;;;;;;4.87;1.27;;;-3.20;99.90;;;;;;5041739;28;20520;-72
2021/12/25 09:22:17;;;;;;;2.73;1.00;;;-3.00;99.90;;;;;;4991287;28;20198;-72
2021/12/25 09:24:43;;;;;;;4.97;1.00;;;-3.00;99.90;;;;;;5022518;28;20056;-72
2021/12/25 09:27:09;;;;;;;11.00;1.00;;;-3.00;99.90;;;;;;4989328;28;20045;-71
2021/12/25 09:29:35;;;;;;;4.60;1.20;;;-2.90;99.90;;;;;;5023364;28;20149;-72
2021/12/25 09:32:02;;;;;;;4.10;1.10;;;-2.90;99.90;;;;;;5007789;28;20128;-71
2021/12/25 09:34:31;;;;;;;3.00;1.00;;;-2.90;99.90;;;;;;5025047;28;20056;-72
2021/12/25 09:36:56;;;;;;;2.77;0.97;;;-2.80;99.90;;;;;;5025263;28;20066;-72
2021/12/25 09:39:23;;;;;;;3.87;1.20;;;-2.80;99.90;;;;;;5036881;28;20563;-72
2021/12/25 09:41:49;;;;;;;3.97;1.10;;;-2.70;99.90;;;;;;5006893;28;20106;-71
2021/12/25 09:44:16;;;;;;;3.13;1.10;;;-2.60;99.90;;;;;;5019522;28;20120;-71
2021/12/25 09:46:42;;;;;;;3.83;1.20;;;-2.50;99.90;;;;;;5036026;28;20048;-72
2021/12/25 09:49:08;;;;;;;3.27;0.80;;;-2.60;99.90;;;;;;5052148;28;20047;-71
2021/12/25 09:51:34;;;;;;;3.30;1.13;;;-2.60;99.90;;;;;;5030953;28;20103;-72
2021/12/25 09:54:08;;;;;;;2.50;1.07;;;-2.50;99.90;;;;;;5021194;28;20048;-71
2021/12/25 09:56:39;;;;;;;1.93;0.83;;;-2.40;99.90;;;;;;5030983;28;20049;-72
2021/12/25 09:59:06;;;;;;;3.20;0.97;;;-2.40;99.90;;;;;;5017989;28;20147;-69
2021/12/25 10:01:38;;;;;;;4.40;1.07;;;-2.30;99.90;;;;;;5004327;28;20103;-70
2021/12/25 10:04:06;;;;;;;3.80;0.93;;;-2.30;99.90;;;;;;5017067;28;20045;-70
2021/12/25 10:06:35;;;;;;;2.73;0.97;;;-2.30;99.90;;;;;;5043440;28;20401;-69
2021/12/25 10:09:18;;;;;;;4.07;0.90;;;-2.20;99.90;;;;;;5039231;28;20045;-70
2021/12/25 10:12:05;;;;;;;4.10;1.20;;;-2.20;99.90;;;;;;5026708;28;20140;-70
2021/12/25 10:14:31;;;;;;;5.03;0.83;;;-2.20;99.90;;;;;;5043421;28;20115;-70
2021/12/25 10:16:57;;;;;;;3.27;0.90;;;-2.10;99.90;;;;;;5024137;28;20049;-69
2021/12/25 10:19:27;;;;;;;4.47;1.20;;;-2.10;99.90;;;;;;5042903;28;20067;-69
2021/12/25 10:22:11;;;;;;;4.70;1.05;;;-2.10;99.90;;;;;;5024392;28;20053;-70
2021/12/25 10:24:49;;;;;;;2.97;1.10;;;-2.10;99.90;;;;;;5041782;28;20053;-70
2021/12/25 10:27:22;;;;;;;2.60;1.03;;;-2.10;99.90;;;;;;5038584;28;20111;-70
2021/12/25 10:29:59;;;;;;;2.83;0.83;;;-2.00;99.90;;;;;;5023427;28;20476;-69
2021/12/25 10:32:25;;;;;;;2.40;0.87;;;-1.90;99.90;;;;;;5042391;28;20053;-70
2021/12/25 10:34:53;;;;;;;3.53;1.20;;;-1.90;99.90;;;;;;5010529;28;20135;-70
2021/12/25 10:37:21;;;;;;;4.27;1.10;;;-1.90;99.90;;;;;;5026255;28;20037;-70
2021/12/25 10:39:48;;;;;;;3.47;0.90;;;-1.90;99.90;;;;;;5039397;28;20509;-71
2021/12/25 10:42:22;;;;;;;3.27;0.80;;;-1.70;99.90;;;;;;5018949;28;20045;-70
2021/12/25 10:44:55;;;;;;;3.33;0.93;;;-1.80;99.90;;;;;;5041916;28;20498;-70
2021/12/25 10:47:26;;;;;;;5.57;1.00;;;-1.80;99.90;;;;;;5036542;28;20499;-70
2021/12/25 10:49:54;;;;;;;5.63;1.10;;;-1.80;99.90;;;;;;5019273;28;20114;-70
2021/12/25 10:52:23;;;;;;;1.67;0.70;;;-1.80;99.90;;;;;;5025513;28;20124;-71
2021/12/25 10:55:06;;;;;;;3.00;1.00;;;-1.70;99.90;;;;;;5044320;28;20052;-71
2021/12/25 10:57:40;;;;;;;2.83;0.90;;;-1.70;99.90;;;;;;5043848;28;20053;-70
2021/12/25 11:00:12;;;;;;;3.00;1.10;;;-1.60;99.90;;;;;;5023361;28;20072;-70
2021/12/25 11:02:50;;;;;;;5.60;1.60;;;-1.60;99.90;;;;;;5047877;28;20099;-70
2021/12/25 11:05:23;;;;;;;2.30;1.07;;;-1.50;99.90;;;;;;5033479;28;20049;-69
2021/12/25 11:08:24;;;;;;;2.60;1.30;;;-1.50;99.90;;;;;;5037411;28;20041;-70
2021/12/25 11:10:57;;;;;;;3.60;0.93;;;-1.50;99.90;;;;;;5007551;28;20118;-70
2021/12/25 11:13:34;;;;;;;4.70;1.07;;;-1.50;99.90;;;;;;5039792;28;20110;-70
2021/12/25 11:16:27;;;;;;;3.80;0.90;;;-1.50;99.90;;;;;;5025759;28;20045;-70
2021/12/25 11:19:05;;;;;;;4.20;1.40;;;-1.50;99.90;;;;;;5035848;28;20053;-71
2021/12/25 11:21:54;;;;;;;3.20;0.80;;;-1.50;99.90;;;;;;5041493;28;20084;-70
2021/12/25 11:24:22;;;;;;;2.93;1.03;;;-1.50;99.90;;;;;;5042989;28;20388;-70
2021/12/25 11:26:55;;;;;;;1.43;0.87;;;-1.40;99.90;;;;;;5046590;28;20392;-73
2021/12/25 11:29:24;;;;;;;4.03;1.20;;;-1.40;99.90;;;;;;5039763;28;20053;-72
2021/12/25 11:31:51;;;;;;;4.00;0.90;;;-1.40;99.90;;;;;;5045611;28;20051;-72
2021/12/25 11:34:18;;;;;;;3.43;1.10;;;-1.40;99.90;;;;;;5047263;28;20412;-72
2021/12/25 11:36:48;;;;;;;3.50;1.07;;;-1.40;99.90;;;;;;5044984;28;20617;-72
2021/12/25 11:39:16;;;;;;;2.83;0.87;;;-1.30;99.90;;;;;;5040807;28;20068;-71
2021/12/25 11:41:42;;;;;;;4.53;1.20;;;-1.30;99.90;;;;;;5046474;28;20048;-72
2021/12/25 11:44:30;;;;;;;3.80;1.00;;;-1.30;99.90;;;;;;5042534;28;20391;-72
2021/12/25 11:46:56;;;;;;;3.23;1.10;;;-1.20;99.90;;;;;;5045426;28;20516;-71
2021/12/25 11:49:22;;;;;;;3.63;1.13;;;-1.20;99.90;;;;;;5010114;28;20060;-72
2021/12/25 11:51:49;;;;;;;2.03;0.90;;;-1.20;99.90;;;;;;5045300;28;20381;-72
2021/12/25 11:57:45;;;;;;;2.97;0.90;;;-1.20;99.90;;;;;;5040159;28;20080;-73
2021/12/25 11:59:51;;;;;;;4.80;1.10;;;-1.30;99.90;;;;;;5041070;28;20049;-72
2021/12/25 12:02:43;;;;;;;2.13;0.93;;;-1.20;99.90;;;;;;5038198;28;20076;-72
2021/12/25 12:05:31;;;;;;;3.67;1.13;;;-1.20;99.90;;;;;;5031701;28;20450;-72
2021/12/25 12:08:09;;;;;;;5.30;1.70;;;-1.20;99.90;;;;;;5042534;28;20037;-72
2021/12/25 12:10:52;;;;;;;4.27;1.17;;;-1.20;99.90;;;;;;5027223;28;20096;-73
2021/12/25 12:13:25;;;;;;;1.87;1.07;;;-1.20;99.90;;;;;;5040607;28;20045;-72
2021/12/25 12:15:57;;;;;;;4.83;1.30;;;-1.20;99.90;;;;;;5033934;28;20053;-72
2021/12/25 12:18:27;;;;;;;4.43;1.40;;;-1.20;99.90;;;;;;5034001;28;20038;-72
2021/12/25 12:21:07;;;;;;;3.80;1.08;;;-1.10;99.90;;;;;;5032170;28;20527;-72
2021/12/25 12:26:47;;;;;;;4.60;1.20;;;-1.10;99.90;;;;;;5044219;28;20045;-72
2021/12/25 12:29:15;;;;;;;2.33;0.93;;;-1.10;99.90;;;;;;5043046;28;20148;-73
2021/12/25 12:31:48;;;;;;;2.30;1.03;;;-1.20;99.90;;;;;;5045389;28;20098;-72
2021/12/25 12:34:33;;;;;;;2.53;1.30;;;-1.10;99.90;;;;;;5038089;28;20049;-72
2021/12/25 12:37:14;;;;;;;5.13;1.20;;;-1.10;99.90;;;;;;5033145;28;20112;-71
2021/12/25 12:40:06;;;;;;;4.90;1.47;;;-1.00;99.90;;;;;;5041505;28;20530;-72
2021/12/25 12:42:44;;;;;;;2.73;1.20;;;-1.00;99.90;;;;;;5031331;28;20048;-72
2021/12/25 12:45:16;;;;;;;2.13;1.03;;;-1.00;99.90;;;;;;5033382;28;20434;-72
2021/12/25 12:48:12;;;;;;;2.40;1.10;;;-1.00;99.90;;;;;;5038428;28;20518;-73
2021/12/25 12:50:41;;;;;;;3.30;1.10;;;-1.10;99.90;;;;;;5039981;28;20045;-72
2021/12/25 12:53:09;;;;;;;3.23;1.10;;;-1.10;99.90;;;;;;5038269;28;20049;-73
2021/12/25 12:55:41;;;;;;;3.57;1.00;;;-1.00;99.90;;;;;;5037251;28;20083;-72
2021/12/25 12:58:08;;;;;;;5.03;1.20;;;-1.00;99.90;;;;;;5034745;28;20037;-73
2021/12/25 13:00:35;;;;;;;3.40;1.23;;;-1.00;99.90;;;;;;5033303;28;20329;-72
2021/12/25 13:03:01;;;;;;;3.47;1.20;;;-1.00;99.90;;;;;;5039723;28;20825;-72
2021/12/25 13:05:42;;;;;;;3.07;1.10;;;-1.00;99.90;;;;;;5035523;28;20658;-70
2021/12/25 13:08:21;;;;;;;4.70;0.87;;;-1.00;99.90;;;;;;5038832;28;20064;-70
2021/12/25 13:10:51;;;;;;;3.93;0.90;;;-1.00;99.90;;;;;;5034032;28;20923;-70
2021/12/25 13:13:29;;;;;;;5.07;1.17;;;-1.00;99.90;;;;;;5037765;28;20047;-70
2021/12/25 13:16:12;;;;;;;3.80;1.00;;;-0.90;99.90;;;;;;5037370;28;20032;-70
2021/12/25 13:18:40;;;;;;;3.83;1.17;;;-0.90;99.90;;;;;;5040528;28;20484;-69
2021/12/25 13:21:15;;;;;;;2.07;1.10;;;-1.00;99.90;;;;;;5040483;28;20044;-70
2021/12/25 13:23:52;;;;;;;3.87;1.20;;;-1.00;99.90;;;;;;5038591;28;20068;-70
2021/12/25 13:26:48;;;;;;;3.50;1.37;;;-1.00;99.90;;;;;;5038515;28;20461;-70
2021/12/25 13:29:18;;;;;;;3.77;1.10;;;-1.00;99.90;;;;;;5029149;28;20877;-70
2021/12/25 13:31:45;;;;;;;;;;;-1.00;99.90;;;;;;5034961;28;20717;-69
2021/12/25 13:34:15;;;;;;;5.57;1.33;;;-1.00;99.90;;;;;;5037556;28;19921;-69
2021/12/25 13:36:50;;;;;;;3.15;1.10;;;-1.00;99.90;;;;;;5032015;28;20040;-70
2021/12/25 13:39:18;;;;;;;2.77;1.03;;;-1.00;99.90;;;;;;5038738;28;21448;-70
2021/12/25 13:41:47;;;;;;;4.37;1.43;;;-1.00;99.90;;;;;;5038462;28;20040;-70
2021/12/25 13:44:15;;;;;;;5.67;1.13;;;-1.00;99.90;;;;;;5040991;28;20059;-70
2021/12/25 13:46:52;;;;;;;3.70;1.03;;;-1.00;99.90;;;;;;5037673;28;20033;-70
2021/12/25 13:49:37;;;;;;;2.73;1.30;;;-1.00;99.90;;;;;;5036728;28;20049;-71
2021/12/25 13:52:05;;;;;;;3.93;1.00;;;-1.10;99.90;;;;;;5043554;28;20334;-70
2021/12/25 13:54:32;;;;;;;2.60;1.10;;;-1.00;99.90;;;;;;5045461;28;20122;-72
2021/12/25 13:56:59;;;;;;;5.13;1.30;;;-1.00;99.90;;;;;;5041633;28;20548;-71
2021/12/25 13:59:25;;;;;;;3.77;1.37;;;-1.10;99.90;;;;;;5042102;28;20535;-72
2021/12/25 14:02:18;;;;;;;4.07;1.10;;;-1.10;99.90;;;;;;5041326;28;20123;-70
2021/12/25 14:04:47;;;;;;;4.00;1.27;;;-1.20;99.90;;;;;;5040802;28;20043;-71
2021/12/25 14:07:16;;;;;;;4.80;0.90;;;-1.10;99.90;;;;;;5041882;28;20045;-70
2021/12/25 14:09:56;;;;;;;2.67;1.10;;;-1.10;99.90;;;;;;5041198;28;20106;-71
2021/12/25 14:12:23;;;;;;;3.90;1.17;;;-1.20;99.90;;;;;;5052684;28;20110;-72
2021/12/25 14:14:50;;;;;;;2.90;1.07;;;-1.20;99.90;;;;;;5042928;28;20522;-71
2021/12/25 14:17:16;;;;;;;4.77;1.60;;;-1.20;99.90;;;;;;5041501;28;20055;-70
2021/12/25 14:19:43;;;;;;;4.37;1.30;;;-1.20;99.90;;;;;;5045033;28;20095;-70
2021/12/25 14:22:09;;;;;;;5.37;1.40;;;-1.20;99.90;;;;;;5043882;28;20521;-71